Time;durP1;ratioP1;P1;durP2;ratioP2;P2;SDS_P1;SDS_P2;PMS_P1;PMS_P2;Temp;Humidity;BMP_temperature;BMP_pressure;BME280_temperature;BME280_humidity;BME280_pressure;Samples;Min_cycle;Max_cycle;Signal;HPM_P1;HPM_P2
2022/09/11 00:00:34;;;;;;;49.28;19.75;;;;;;;;;;8232646;28;20047;-86
2022/09/11 00:04:57;;;;;;;48.35;18.10;;;;;;;;;;8230632;28;20105;-89
2022/09/11 00:09:03;;;;;;;43.13;17.25;;;;;;;;;;8231971;28;20413;-84
2022/09/11 00:13:08;;;;;;;48.05;19.27;;;;;;;;;;8236547;28;20045;-91
2022/09/11 00:17:11;;;;;;;43.05;19.88;;;;;;;;;;8236839;28;20042;-90
2022/09/11 00:21:16;;;;;;;47.90;18.98;;;;;;;;;;8227111;28;20047;-91
2022/09/11 00:25:19;;;;;;;45.83;19.67;;;;;;;;;;8232911;28;20050;-86
2022/09/11 00:29:23;;;;;;;47.40;18.15;;;;;;;;;;8235286;28;20058;-91
2022/09/11 00:33:26;;;;;;;50.83;22.05;;;;;;;;;;8227513;28;20090;-85
2022/09/11 00:37:28;;;;;;;49.83;20.63;;;;;;;;;;8232757;28;20060;-91
2022/09/11 00:41:35;;;;;;;45.97;20.77;;;;;;;;;;8232760;28;20444;-90
2022/09/11 00:45:39;;;;;;;51.67;20.42;;;;;;;;;;8231612;28;20530;-87
2022/09/11 00:49:44;;;;;;;41.70;18.65;;;;;;;;;;8233235;28;20046;-84
2022/09/11 00:53:47;;;;;;;49.42;20.33;;;;;;;;;;8233160;28;20050;-90
2022/09/11 00:57:54;;;;;;;47.75;19.10;;;;;;;;;;8233732;28;20126;-85
2022/09/11 01:01:58;;;;;;;46.33;18.98;;;;;;;;;;8233413;28;20121;-83
2022/09/11 01:06:01;;;;;;;42.75;17.73;;;;;;;;;;8233522;28;20043;-90
2022/09/11 01:10:05;;;;;;;45.25;18.08;;;;;;;;;;8233529;28;21679;-89
2022/09/11 01:14:17;;;;;;;44.38;18.42;;;;;;;;;;8244158;28;20050;-91
2022/09/11 01:18:26;;;;;;;40.42;17.40;;;;;;;;;;8233996;28;20051;-84
2022/09/11 01:22:44;;;;;;;41.92;17.67;;;;;;;;;;8233035;28;20098;-89
2022/09/11 01:27:13;;;;;;;42.85;18.33;;;;;;;;;;8228758;28;20043;-88
2022/09/11 01:31:21;;;;;;;44.00;17.30;;;;;;;;;;8232323;28;20054;-91
2022/09/11 01:35:30;;;;;;;47.83;20.23;;;;;;;;;;8232427;28;20057;-91
2022/09/11 01:39:38;;;;;;;41.78;17.52;;;;;;;;;;8232747;28;20055;-90
2022/09/11 01:43:50;;;;;;;49.38;19.17;;;;;;;;;;8219981;28;20058;-83
2022/09/11 01:47:56;;;;;;;49.95;19.17;;;;;;;;;;8232003;28;20521;-89
2022/09/11 01:52:01;;;;;;;47.30;19.58;;;;;;;;;;8231869;28;20034;-83
2022/09/11 01:56:09;;;;;;;43.75;18.73;;;;;;;;;;8232050;28;20084;-91
2022/09/11 02:00:14;;;;;;;49.05;18.40;;;;;;;;;;8231987;28;20513;-91
2022/09/11 02:04:21;;;;;;;63.58;18.88;;;;;;;;;;8231931;28;20050;-90
2022/09/11 02:08:30;;;;;;;59.92;19.85;;;;;;;;;;8236692;28;20494;-92
2022/09/11 02:12:40;;;;;;;52.20;18.95;;;;;;;;;;8244361;28;20146;-84
2022/09/11 02:16:48;;;;;;;48.35;15.65;;;;;;;;;;8239232;28;20049;-90
2022/09/11 02:20:53;;;;;;;51.42;16.33;;;;;;;;;;8231374;28;20079;-89
2022/09/11 02:24:55;;;;;;;45.15;15.70;;;;;;;;;;8221115;28;20053;-90
2022/09/11 02:28:58;;;;;;;46.03;15.90;;;;;;;;;;8231640;28;20048;-89
2022/09/11 02:33:00;;;;;;;47.80;15.27;;;;;;;;;;8231381;28;20426;-91
2022/09/11 02:37:31;;;;;;;37.92;12.77;;;;;;;;;;8231243;28;20652;-91
2022/09/11 02:41:46;;;;;;;35.78;13.02;;;;;;;;;;8230343;28;20462;-83
2022/09/11 02:46:02;;;;;;;36.15;13.77;;;;;;;;;;8231479;28;20455;-90
2022/09/11 02:50:14;;;;;;;36.30;13.32;;;;;;;;;;8231585;28;20051;-90
2022/09/11 02:54:29;;;;;;;35.50;12.25;;;;;;;;;;8231944;28;20057;-84
2022/09/11 02:58:36;;;;;;;31.25;12.65;;;;;;;;;;8231155;28;20043;-90
2022/09/11 03:02:41;;;;;;;39.15;13.15;;;;;;;;;;8231740;28;20050;-88
2022/09/11 03:06:47;;;;;;;25.45;11.82;;;;;;;;;;8232867;28;20072;-90
2022/09/11 03:10:51;;;;;;;30.38;12.15;;;;;;;;;;8238021;28;20088;-89
2022/09/11 03:14:54;;;;;;;32.45;12.35;;;;;;;;;;8239204;28;20066;-87
2022/09/11 03:18:57;;;;;;;26.63;10.68;;;;;;;;;;8237261;28;20406;-90
2022/09/11 03:22:59;;;;;;;32.72;12.45;;;;;;;;;;8236900;28;20097;-83
2022/09/11 03:27:04;;;;;;;45.88;17.45;;;;;;;;;;8237055;28;20124;-90
2022/09/11 03:31:08;;;;;;;43.97;15.77;;;;;;;;;;8236380;28;20043;-91
2022/09/11 03:35:10;;;;;;;47.63;17.52;;;;;;;;;;8236551;28;20061;-89
2022/09/11 03:39:13;;;;;;;56.08;18.30;;;;;;;;;;8244949;28;20046;-90
2022/09/11 03:43:16;;;;;;;53.58;17.98;;;;;;;;;;8235970;28;20055;-90
2022/09/11 03:47:21;;;;;;;63.85;20.50;;;;;;;;;;8239995;28;20521;-83
2022/09/11 03:51:25;;;;;;;61.60;19.50;;;;;;;;;;8248336;28;20051;-90
2022/09/11 03:55:27;;;;;;;56.97;22.25;;;;;;;;;;8236799;28;20392;-87
2022/09/11 03:59:31;;;;;;;58.80;20.05;;;;;;;;;;8236368;28;20384;-88
2022/09/11 04:03:34;;;;;;;53.15;19.25;;;;;;;;;;8245648;28;20054;-90
2022/09/11 04:07:37;;;;;;;57.35;20.30;;;;;;;;;;8235994;28;20126;-86
2022/09/11 04:11:40;;;;;;;96.15;34.42;;;;;;;;;;8236437;28;20058;-88
2022/09/11 04:15:43;;;;;;;64.40;24.48;;;;;;;;;;8236249;28;20478;-91
2022/09/11 04:19:47;;;;;;;59.50;18.90;;;;;;;;;;8234461;28;20057;-90
2022/09/11 04:23:52;;;;;;;56.45;18.15;;;;;;;;;;8235591;28;20078;-90
2022/09/11 04:27:55;;;;;;;59.22;19.75;;;;;;;;;;8235532;28;20046;-90
2022/09/11 04:31:58;;;;;;;58.42;21.80;;;;;;;;;;8235303;28;20042;-90
2022/09/11 04:36:04;;;;;;;44.80;18.63;;;;;;;;;;8235432;28;20597;-83
2022/09/11 04:40:08;;;;;;;49.13;21.00;;;;;;;;;;8242117;28;20051;-85
2022/09/11 04:44:11;;;;;;;34.92;14.68;;;;;;;;;;8234634;28;20108;-90
2022/09/11 04:48:15;;;;;;;41.72;17.40;;;;;;;;;;8234060;28;20093;-90
2022/09/11 04:52:18;;;;;;;34.55;13.25;;;;;;;;;;8247170;28;20509;-89
2022/09/11 04:56:21;;;;;;;27.65;13.73;;;;;;;;;;8241251;28;20057;-84
2022/09/11 05:00:24;;;;;;;35.10;13.13;;;;;;;;;;8234923;28;20070;-87
2022/09/11 05:04:27;;;;;;;33.90;13.43;;;;;;;;;;8234286;28;20039;-90
2022/09/11 05:08:31;;;;;;;35.22;14.38;;;;;;;;;;8243098;28;20141;-90
2022/09/11 05:12:34;;;;;;;31.75;13.25;;;;;;;;;;8234508;28;20554;-87
2022/09/11 05:16:37;;;;;;;39.83;13.55;;;;;;;;;;8234454;28;20065;-91
2022/09/11 05:20:45;;;;;;;36.60;14.60;;;;;;;;;;8231470;28;20046;-89
2022/09/11 05:24:47;;;;;;;40.75;14.13;;;;;;;;;;8220376;28;20064;-87
2022/09/11 05:28:54;;;;;;;41.50;14.93;;;;;;;;;;8232414;28;20047;-91
2022/09/11 05:33:15;;;;;;;37.30;13.75;;;;;;;;;;8232149;28;20046;-92
2022/09/11 05:37:56;;;;;;;29.23;12.63;;;;;;;;;;8232605;28;20062;-84
2022/09/11 05:42:38;;;;;;;32.10;11.88;;;;;;;;;;8241803;28;20144;-92
2022/09/11 05:47:07;;;;;;;27.30;12.60;;;;;;;;;;8220771;28;20054;-91
2022/09/11 05:51:34;;;;;;;32.65;15.02;;;;;;;;;;8231609;28;20047;-83
2022/09/11 05:56:17;;;;;;;28.75;12.32;;;;;;;;;;8231802;28;20052;-83
2022/09/11 06:00:37;;;;;;;29.35;11.80;;;;;;;;;;8238485;28;20043;-84
2022/09/11 06:04:56;;;;;;;24.83;10.27;;;;;;;;;;8231691;28;20073;-84
2022/09/11 06:09:24;;;;;;;24.05;10.90;;;;;;;;;;8238757;28;20059;-85
2022/09/11 06:14:02;;;;;;;24.17;10.10;;;;;;;;;;8232131;28;20059;-83
2022/09/11 06:18:19;;;;;;;20.08;8.43;;;;;;;;;;8228235;28;20054;-91
2022/09/11 06:22:22;;;;;;;13.88;7.60;;;;;;;;;;8230115;28;20050;-91
2022/09/11 06:26:28;;;;;;;9.88;5.80;;;;;;;;;;8229542;28;20046;-84
2022/09/11 06:30:33;;;;;;;7.65;4.47;;;;;;;;;;8231443;28;20066;-89
2022/09/11 06:34:36;;;;;;;7.93;4.10;;;;;;;;;;8242166;28;20484;-83
2022/09/11 06:38:39;;;;;;;8.88;4.35;;;;;;;;;;8233595;28;20454;-83
2022/09/11 06:42:41;;;;;;;9.40;5.18;;;;;;;;;;8234120;28;20053;-91
2022/09/11 06:46:46;;;;;;;8.02;4.90;;;;;;;;;;8232222;28;20068;-88
2022/09/11 06:50:48;;;;;;;10.50;6.00;;;;;;;;;;8231527;28;20102;-84
2022/09/11 06:54:52;;;;;;;10.88;6.20;;;;;;;;;;8229483;28;20130;-88
2022/09/11 06:58:55;;;;;;;10.48;6.32;;;;;;;;;;8228584;28;20062;-85
2022/09/11 07:03:01;;;;;;;12.55;6.80;;;;;;;;;;8232535;28;20080;-91
2022/09/11 07:07:04;;;;;;;12.82;6.75;;;;;;;;;;8227897;28;20487;-90
2022/09/11 07:11:07;;;;;;;11.38;6.95;;;;;;;;;;8227772;28;20051;-89
2022/09/11 07:15:11;;;;;;;15.85;7.80;;;;;;;;;;8224854;28;20055;-90
2022/09/11 07:19:17;;;;;;;14.15;6.80;;;;;;;;;;8209566;28;20069;-87
2022/09/11 07:23:19;;;;;;;19.38;8.90;;;;;;;;;;8224894;28;20062;-86
2022/09/11 07:27:22;;;;;;;16.00;7.70;;;;;;;;;;8225416;28;20405;-88
2022/09/11 07:31:43;;;;;;;17.25;8.20;;;;;;;;;;8227527;28;20043;-84
2022/09/11 07:36:05;;;;;;;16.80;8.30;;;;;;;;;;8229643;28;20503;-89
2022/09/11 07:40:28;;;;;;;14.02;7.97;;;;;;;;;;8229810;28;20470;-91
2022/09/11 07:44:44;;;;;;;12.65;7.40;;;;;;;;;;8228886;28;20053;-89
2022/09/11 07:49:06;;;;;;;15.38;8.02;;;;;;;;;;8228260;28;20050;-89
2022/09/11 07:53:24;;;;;;;18.58;9.00;;;;;;;;;;8227183;28;20514;-90
2022/09/11 07:57:33;;;;;;;20.55;8.40;;;;;;;;;;8231640;28;20410;-86
2022/09/11 08:01:45;;;;;;;20.40;9.30;;;;;;;;;;8219180;28;20747;-90
2022/09/11 08:06:03;;;;;;;22.15;9.40;;;;;;;;;;8221821;28;20057;-90
2022/09/11 08:10:19;;;;;;;26.40;9.50;;;;;;;;;;8225665;28;20050;-89
2022/09/11 08:14:34;;;;;;;21.33;9.57;;;;;;;;;;8226254;28;20046;-90
2022/09/11 08:18:53;;;;;;;29.30;10.05;;;;;;;;;;8255952;28;20181;-87
2022/09/11 08:23:08;;;;;;;;;;;;;;;;;;8263738;28;20090;-87
2022/09/11 08:27:23;;;;;;;13.73;7.88;;;;;;;;;;8246942;28;20049;-88
2022/09/11 08:31:38;;;;;;;16.70;8.48;;;;;;;;;;8248525;28;20058;-89
2022/09/11 08:35:50;;;;;;;8.23;3.67;;;;;;;;;;8256293;28;20061;-89
2022/09/11 08:40:01;;;;;;;15.80;6.53;;;;;;;;;;8253447;28;20072;-89
2022/09/11 08:44:24;;;;;;;16.15;7.00;;;;;;;;;;8234419;28;20054;-85
2022/09/11 08:48:42;;;;;;;18.63;7.30;;;;;;;;;;8228928;28;20051;-87
2022/09/11 08:52:55;;;;;;;13.82;6.40;;;;;;;;;;8222111;28;20051;-85
2022/09/11 08:57:11;;;;;;;16.20;8.13;;;;;;;;;;8231035;28;20511;-86
2022/09/11 09:01:26;;;;;;;13.10;6.70;;;;;;;;;;8224873;28;20491;-87
2022/09/11 09:05:44;;;;;;;18.38;6.90;;;;;;;;;;8233405;28;20486;-87
2022/09/11 09:09:55;;;;;;;15.77;7.05;;;;;;;;;;8238078;28;20043;-83
2022/09/11 09:14:13;;;;;;;12.93;7.30;;;;;;;;;;8232383;28;20054;-84
2022/09/11 09:18:25;;;;;;;14.55;7.57;;;;;;;;;;8232131;28;20423;-86
2022/09/11 09:22:39;;;;;;;17.95;7.63;;;;;;;;;;8242475;28;20110;-91
2022/09/11 09:26:58;;;;;;;15.60;8.27;;;;;;;;;;8249557;28;20042;-90
2022/09/11 09:31:07;;;;;;;20.15;8.57;;;;;;;;;;8242217;28;20055;-85
2022/09/11 09:35:20;;;;;;;17.52;8.65;;;;;;;;;;8236314;28;20074;-85
2022/09/11 09:39:29;;;;;;;19.42;9.70;;;;;;;;;;8244069;28;20101;-87
2022/09/11 09:43:45;;;;;;;16.10;9.70;;;;;;;;;;8244316;28;20054;-89
2022/09/11 09:47:59;;;;;;;15.00;9.27;;;;;;;;;;8241593;28;20053;-89
2022/09/11 09:52:36;;;;;;;17.02;9.20;;;;;;;;;;8230306;28;20058;-88
2022/09/11 09:56:53;;;;;;;16.25;10.13;;;;;;;;;;8241502;28;20058;-88
2022/09/11 10:00:58;;;;;;;13.82;9.43;;;;;;;;;;8245286;28;20047;-90
2022/09/11 10:10:35;;;;;;;10.02;6.72;;;;;;;;;;8195252;28;20527;-88
2022/09/11 10:14:46;;;;;;;11.82;6.85;;;;;;;;;;8245178;28;20402;-90
2022/09/11 10:18:58;;;;;;;10.93;6.68;;;;;;;;;;8241331;28;20050;-88
2022/09/11 10:23:26;;;;;;;10.68;6.80;;;;;;;;;;8240120;28;20053;-88
2022/09/11 10:27:50;;;;;;;9.00;5.82;;;;;;;;;;8241405;28;20051;-88
2022/09/11 10:32:01;;;;;;;10.57;6.40;;;;;;;;;;8238007;28;20503;-87
2022/09/11 10:36:40;;;;;;;14.00;6.72;;;;;;;;;;8220603;28;20051;-88
2022/09/11 10:41:07;;;;;;;14.32;7.00;;;;;;;;;;8239640;28;20570;-89
2022/09/11 10:45:38;;;;;;;14.68;6.85;;;;;;;;;;8220915;28;20120;-89
2022/09/11 10:49:42;;;;;;;14.98;7.00;;;;;;;;;;8238569;28;20042;-85
2022/09/11 10:53:59;;;;;;;16.00;7.85;;;;;;;;;;8235837;28;20057;-89
2022/09/11 10:58:08;;;;;;;12.73;6.60;;;;;;;;;;8246029;28;20118;-86
2022/09/11 11:02:20;;;;;;;12.20;7.78;;;;;;;;;;8242311;28;20126;-88
2022/09/11 11:06:36;;;;;;;9.68;6.05;;;;;;;;;;8245259;28;20460;-84
2022/09/11 11:10:57;;;;;;;9.43;6.43;;;;;;;;;;8243842;28;20051;-88
2022/09/11 11:15:46;;;;;;;8.43;6.18;;;;;;;;;;8239913;28;20055;-87
2022/09/11 11:20:30;;;;;;;7.93;6.05;;;;;;;;;;8232434;28;20054;-88
2022/09/11 11:24:58;;;;;;;8.80;5.28;;;;;;;;;;8232279;28;20055;-89
2022/09/11 11:29:27;;;;;;;7.45;4.80;;;;;;;;;;8226570;28;20129;-88
2022/09/11 11:33:55;;;;;;;8.02;5.03;;;;;;;;;;8231123;28;20070;-87
2022/09/11 11:38:07;;;;;;;7.93;4.80;;;;;;;;;;8235092;28;20517;-86
2022/09/11 11:42:17;;;;;;;7.25;5.13;;;;;;;;;;8236682;28;20093;-85
2022/09/11 11:46:37;;;;;;;9.00;4.95;;;;;;;;;;8232463;28;20047;-87
2022/09/11 11:50:44;;;;;;;9.82;4.72;;;;;;;;;;8238639;28;20074;-86
2022/09/11 11:54:58;;;;;;;7.95;5.35;;;;;;;;;;8232930;28;20150;-89
2022/09/11 11:59:16;;;;;;;8.40;5.05;;;;;;;;;;8231178;28;20043;-86
2022/09/11 12:03:32;;;;;;;9.57;3.90;;;;;;;;;;8232236;28;20050;-85
2022/09/11 12:07:46;;;;;;;6.65;4.72;;;;;;;;;;8233499;28;20317;-84
2022/09/11 12:11:54;;;;;;;8.68;4.97;;;;;;;;;;8223921;28;20047;-87
2022/09/11 12:16:30;;;;;;;7.03;4.78;;;;;;;;;;8227150;28;20141;-84
2022/09/11 12:20:45;;;;;;;9.98;5.13;;;;;;;;;;8220700;28;20101;-86
2022/09/11 12:25:05;;;;;;;8.00;5.72;;;;;;;;;;8225138;28;20078;-89
2022/09/11 12:29:52;;;;;;;7.63;5.30;;;;;;;;;;8223728;28;20130;-90
2022/09/11 12:34:01;;;;;;;7.65;5.45;;;;;;;;;;8218129;28;20306;-89
2022/09/11 12:38:28;;;;;;;9.15;5.65;;;;;;;;;;8225833;28;20142;-89
2022/09/11 12:43:34;;;;;;;13.60;6.78;;;;;;;;;;8221697;28;20043;-88
2022/09/11 12:47:47;;;;;;;10.30;6.47;;;;;;;;;;8100442;28;20078;-89
2022/09/11 12:52:06;;;;;;;9.85;6.80;;;;;;;;;;8220450;28;20161;-90
2022/09/11 12:56:24;;;;;;;11.98;6.97;;;;;;;;;;8226423;28;20073;-88
2022/09/11 13:00:44;;;;;;;10.82;6.47;;;;;;;;;;8229069;28;20046;-89
2022/09/11 13:04:51;;;;;;;10.23;6.25;;;;;;;;;;8227837;28;20538;-84
2022/09/11 13:08:58;;;;;;;10.15;7.10;;;;;;;;;;8227614;28;20538;-84
2022/09/11 13:13:04;;;;;;;10.05;6.13;;;;;;;;;;8223432;28;20093;-85
2022/09/11 13:17:14;;;;;;;8.63;6.25;;;;;;;;;;8225301;28;20038;-85
2022/09/11 13:21:18;;;;;;;12.30;6.43;;;;;;;;;;8226928;28;20047;-81
2022/09/11 13:25:25;;;;;;;8.18;5.70;;;;;;;;;;8227830;28;20133;-85
2022/09/11 13:29:31;;;;;;;9.68;6.00;;;;;;;;;;8221479;28;20058;-87
2022/09/11 13:33:33;;;;;;;11.35;6.53;;;;;;;;;;8225203;28;20046;-85
2022/09/11 13:37:39;;;;;;;8.55;5.50;;;;;;;;;;8230544;28;20628;-85
2022/09/11 13:41:45;;;;;;;7.60;5.95;;;;;;;;;;8227158;28;20076;-89
2022/09/11 13:45:48;;;;;;;8.13;5.30;;;;;;;;;;8230521;28;20917;-84
2022/09/11 13:49:54;;;;;;;7.80;4.93;;;;;;;;;;8227768;28;20129;-83
2022/09/11 13:54:02;;;;;;;8.02;5.68;;;;;;;;;;8218466;28;20053;-85
2022/09/11 14:02:49;;;;;;;9.15;6.40;;;;;;;;;;8472054;27;20419;-88
2022/09/11 14:06:54;;;;;;;7.50;5.60;;;;;;;;;;8484249;28;20395;-87
2022/09/11 14:11:02;;;;;;;10.70;6.40;;;;;;;;;;8467381;27;20402;-88
2022/09/11 14:15:17;;;;;;;9.25;5.95;;;;;;;;;;8470164;28;20052;-84
2022/09/11 14:19:23;;;;;;;7.47;5.28;;;;;;;;;;8473171;27;20399;-88
2022/09/11 14:23:29;;;;;;;7.70;5.60;;;;;;;;;;8461445;27;20068;-82
2022/09/11 14:27:37;;;;;;;8.40;5.32;;;;;;;;;;8457237;28;20047;-83
2022/09/11 14:31:41;;;;;;;8.43;5.60;;;;;;;;;;8461109;28;20079;-83
2022/09/11 14:35:47;;;;;;;6.90;4.85;;;;;;;;;;8459430;28;20051;-83
2022/09/11 14:39:55;;;;;;;8.05;5.30;;;;;;;;;;8454284;28;20500;-87
2022/09/11 14:43:58;;;;;;;8.52;5.93;;;;;;;;;;8463817;28;20494;-88
2022/09/11 14:48:00;;;;;;;8.05;5.35;;;;;;;;;;8461148;28;20048;-87
2022/09/11 14:52:06;;;;;;;9.18;5.35;;;;;;;;;;8457994;28;20118;-84
2022/09/11 14:56:09;;;;;;;7.10;4.97;;;;;;;;;;8456161;28;20479;-84
2022/09/11 15:00:14;;;;;;;7.63;4.80;;;;;;;;;;8457692;28;20131;-88
2022/09/11 15:04:20;;;;;;;7.93;4.38;;;;;;;;;;8454964;28;20047;-82
2022/09/11 15:08:25;;;;;;;7.25;4.28;;;;;;;;;;8461214;28;20542;-81
2022/09/11 15:12:29;;;;;;;8.98;4.50;;;;;;;;;;8445236;28;20476;-84
2022/09/11 15:16:31;;;;;;;7.82;4.65;;;;;;;;;;8441166;28;20044;-84
2022/09/11 15:20:34;;;;;;;8.63;4.90;;;;;;;;;;8436732;28;20047;-85
2022/09/11 15:24:39;;;;;;;8.65;4.93;;;;;;;;;;8431451;28;20047;-82
2022/09/11 15:28:43;;;;;;;9.07;3.97;;;;;;;;;;8431662;28;20036;-83
2022/09/11 15:32:46;;;;;;;7.65;4.70;;;;;;;;;;8436166;28;20063;-84
2022/09/11 15:36:49;;;;;;;7.93;4.22;;;;;;;;;;8439319;28;20595;-83
2022/09/11 15:40:55;;;;;;;6.90;4.63;;;;;;;;;;8438200;28;20040;-83
2022/09/11 15:44:58;;;;;;;11.05;5.47;;;;;;;;;;8435906;28;20101;-81
2022/09/11 15:49:01;;;;;;;10.93;6.03;;;;;;;;;;8434015;28;20097;-82
2022/09/11 15:53:04;;;;;;;12.27;5.38;;;;;;;;;;8432007;28;20051;-88
2022/09/11 15:57:09;;;;;;;14.73;5.93;;;;;;;;;;8432246;28;20128;-89
2022/09/11 16:01:28;;;;;;;13.60;5.88;;;;;;;;;;8449620;27;20087;-86
2022/09/11 16:05:44;;;;;;;12.88;6.30;;;;;;;;;;8431079;28;20048;-89
2022/09/11 16:10:03;;;;;;;10.52;5.03;;;;;;;;;;8449055;28;20474;-88
2022/09/11 16:14:40;;;;;;;9.30;5.80;;;;;;;;;;8439890;28;20533;-89
2022/09/11 16:19:00;;;;;;;8.02;5.50;;;;;;;;;;8450771;28;20558;-87
2022/09/11 16:23:16;;;;;;;10.23;5.53;;;;;;;;;;8430921;27;20097;-88
2022/09/11 16:27:25;;;;;;;8.43;5.53;;;;;;;;;;8434965;28;20180;-85
2022/09/11 16:31:41;;;;;;;13.38;5.82;;;;;;;;;;8436216;27;20040;-88
2022/09/11 16:36:04;;;;;;;15.45;6.53;;;;;;;;;;8437792;28;20135;-89
2022/09/11 16:40:12;;;;;;;11.25;7.00;;;;;;;;;;8429135;27;20411;-89
2022/09/11 16:44:32;;;;;;;13.55;6.95;;;;;;;;;;8434330;28;20655;-88
2022/09/11 16:48:40;;;;;;;10.20;7.25;;;;;;;;;;8440915;28;20437;-83
2022/09/11 16:53:02;;;;;;;12.20;6.35;;;;;;;;;;8434605;27;20387;-89
2022/09/11 16:57:17;;;;;;;12.85;7.38;;;;;;;;;;8439166;27;20044;-88
2022/09/11 17:01:36;;;;;;;14.95;7.45;;;;;;;;;;8439746;28;20415;-87
2022/09/11 17:06:08;;;;;;;14.60;7.68;;;;;;;;;;8438478;28;20055;-88
2022/09/11 17:10:20;;;;;;;17.95;8.73;;;;;;;;;;8455724;28;20052;-88
2022/09/11 17:14:31;;;;;;;20.85;9.02;;;;;;;;;;8452482;28;20076;-89
2022/09/11 17:18:49;;;;;;;20.48;9.32;;;;;;;;;;8458424;28;20054;-89
2022/09/11 17:23:01;;;;;;;23.50;10.05;;;;;;;;;;8453190;28;20049;-88
2022/09/11 17:27:09;;;;;;;22.33;10.63;;;;;;;;;;8444883;28;20047;-87
2022/09/11 17:31:17;;;;;;;22.67;9.88;;;;;;;;;;8446799;28;20126;-90
2022/09/11 17:35:28;;;;;;;24.95;9.23;;;;;;;;;;8445950;28;20044;-90
2022/09/11 17:39:41;;;;;;;23.45;9.57;;;;;;;;;;8458183;28;20042;-90
2022/09/11 17:43:46;;;;;;;26.02;8.80;;;;;;;;;;8457149;28;20137;-90
2022/09/11 17:48:03;;;;;;;18.95;8.77;;;;;;;;;;8441618;28;22034;-87
2022/09/11 17:52:25;;;;;;;16.98;8.82;;;;;;;;;;8451034;28;20119;-90
2022/09/11 17:56:35;;;;;;;26.58;8.90;;;;;;;;;;8442334;28;20044;-88
2022/09/11 18:00:44;;;;;;;16.17;8.95;;;;;;;;;;8449175;28;20079;-90
2022/09/11 18:04:50;;;;;;;17.63;8.68;;;;;;;;;;8445026;28;20078;-88
2022/09/11 18:08:55;;;;;;;20.13;9.40;;;;;;;;;;8452531;28;20414;-87
2022/09/11 18:12:59;;;;;;;15.32;8.13;;;;;;;;;;8453314;28;20046;-83
2022/09/11 18:17:02;;;;;;;15.20;7.88;;;;;;;;;;8450061;28;20120;-88
2022/09/11 18:21:05;;;;;;;11.50;7.18;;;;;;;;;;8473695;28;20492;-82
2022/09/11 18:25:08;;;;;;;17.55;7.88;;;;;;;;;;8457811;28;20467;-89
2022/09/11 18:29:14;;;;;;;15.45;8.65;;;;;;;;;;8453018;28;20036;-86
2022/09/11 18:33:17;;;;;;;14.65;7.75;;;;;;;;;;8448456;28;20040;-87
2022/09/11 18:37:20;;;;;;;13.95;8.98;;;;;;;;;;8450779;28;20124;-86
2022/09/11 18:41:24;;;;;;;13.43;8.85;;;;;;;;;;8440037;28;20055;-88
2022/09/11 18:45:29;;;;;;;15.85;7.80;;;;;;;;;;8439734;28;20403;-86
2022/09/11 18:49:33;;;;;;;19.48;8.10;;;;;;;;;;8464569;28;20040;-88
2022/09/11 18:53:37;;;;;;;15.43;8.15;;;;;;;;;;8466961;28;20120;-87
2022/09/11 18:57:40;;;;;;;14.77;8.55;;;;;;;;;;8455169;28;20102;-85
2022/09/11 19:01:43;;;;;;;20.27;8.30;;;;;;;;;;8460185;28;20055;-85
2022/09/11 19:05:47;;;;;;;18.50;8.20;;;;;;;;;;8465258;28;20084;-84
2022/09/11 19:09:49;;;;;;;13.75;7.13;;;;;;;;;;8467153;28;20049;-84
2022/09/11 19:13:53;;;;;;;12.27;7.32;;;;;;;;;;8467351;28;20453;-85
2022/09/11 19:17:58;;;;;;;16.02;6.97;;;;;;;;;;8466710;28;20048;-81
2022/09/11 19:22:00;;;;;;;10.77;6.32;;;;;;;;;;8466110;28;20044;-81
2022/09/11 19:26:03;;;;;;;9.52;5.47;;;;;;;;;;8466990;28;20202;-81
2022/09/11 19:30:08;;;;;;;10.85;6.18;;;;;;;;;;8467877;28;20463;-84
2022/09/11 19:34:13;;;;;;;9.40;5.15;;;;;;;;;;8466956;28;20039;-87
2022/09/11 19:38:16;;;;;;;11.70;5.75;;;;;;;;;;8466923;28;20043;-82
2022/09/11 19:42:18;;;;;;;10.00;5.90;;;;;;;;;;8466633;28;20040;-83
2022/09/11 19:46:23;;;;;;;14.45;5.90;;;;;;;;;;8466745;27;20067;-81
2022/09/11 19:50:32;;;;;;;10.15;6.13;;;;;;;;;;8466452;28;20039;-86
2022/09/11 19:54:36;;;;;;;12.20;5.90;;;;;;;;;;8466309;27;20596;-81
2022/09/11 19:58:39;;;;;;;11.38;5.97;;;;;;;;;;8467288;28;20055;-82
2022/09/11 20:02:44;;;;;;;10.15;5.68;;;;;;;;;;8470545;28;20058;-84
2022/09/11 20:06:48;;;;;;;9.80;5.72;;;;;;;;;;8470532;28;20475;-81
2022/09/11 20:10:51;;;;;;;11.90;5.32;;;;;;;;;;8467445;28;20489;-81
2022/09/11 20:14:53;;;;;;;8.60;5.50;;;;;;;;;;8465941;28;20071;-82
2022/09/11 20:18:57;;;;;;;8.63;4.97;;;;;;;;;;8466487;28;20047;-86
2022/09/11 20:23:02;;;;;;;10.60;5.28;;;;;;;;;;8466156;28;20044;-80
2022/09/11 20:27:05;;;;;;;7.78;4.80;;;;;;;;;;8466034;28;20058;-87
2022/09/11 20:31:15;;;;;;;10.15;5.60;;;;;;;;;;8465152;28;20048;-87
2022/09/11 20:35:18;;;;;;;10.25;4.95;;;;;;;;;;8465100;28;20050;-87
2022/09/11 20:39:22;;;;;;;8.45;5.13;;;;;;;;;;8465160;28;20047;-87
2022/09/11 20:43:24;;;;;;;10.80;4.40;;;;;;;;;;8464732;27;20054;-87
2022/09/11 20:47:27;;;;;;;8.40;4.45;;;;;;;;;;8464679;28;20051;-81
2022/09/11 20:51:29;;;;;;;12.13;5.45;;;;;;;;;;8464976;28;20047;-81
2022/09/11 20:55:33;;;;;;;7.05;4.93;;;;;;;;;;8450282;28;20047;-87
2022/09/11 20:59:36;;;;;;;11.00;4.80;;;;;;;;;;8464064;28;20410;-87
2022/09/11 21:03:43;;;;;;;12.93;5.93;;;;;;;;;;8464421;28;20138;-88
2022/09/11 21:07:45;;;;;;;11.23;5.97;;;;;;;;;;8464384;28;20376;-87
2022/09/11 21:11:49;;;;;;;13.80;5.85;;;;;;;;;;8463314;28;20071;-86
2022/09/11 21:15:52;;;;;;;13.90;6.35;;;;;;;;;;8464262;28;20043;-84
2022/09/11 21:19:54;;;;;;;10.48;5.38;;;;;;;;;;8464121;28;20092;-81
2022/09/11 21:23:58;;;;;;;11.00;5.00;;;;;;;;;;8463523;28;20091;-87
2022/09/11 21:28:02;;;;;;;13.88;5.70;;;;;;;;;;8463476;28;20043;-86
2022/09/11 21:32:04;;;;;;;8.25;5.25;;;;;;;;;;8463151;28;20095;-86
2022/09/11 21:36:07;;;;;;;11.50;4.47;;;;;;;;;;8463511;28;20161;-80
2022/09/11 21:40:10;;;;;;;7.88;4.72;;;;;;;;;;8465028;28;20138;-81
2022/09/11 21:44:14;;;;;;;9.25;4.68;;;;;;;;;;8463568;28;20047;-80
2022/09/11 21:48:17;;;;;;;9.32;4.60;;;;;;;;;;8465586;28;20048;-81
2022/09/11 21:52:19;;;;;;;7.55;4.80;;;;;;;;;;8465659;28;20039;-80
2022/09/11 21:56:24;;;;;;;7.88;4.35;;;;;;;;;;8463237;28;20055;-85
2022/09/11 22:00:28;;;;;;;10.30;4.90;;;;;;;;;;8462623;28;20059;-82
2022/09/11 22:04:31;;;;;;;16.52;5.20;;;;;;;;;;8462487;28;20040;-81
2022/09/11 22:08:34;;;;;;;12.50;5.50;;;;;;;;;;8462499;28;20059;-87
2022/09/11 22:12:36;;;;;;;18.88;7.00;;;;;;;;;;8462414;28;20104;-82
2022/09/11 22:16:40;;;;;;;13.05;6.28;;;;;;;;;;8462350;28;20043;-83
2022/09/11 22:20:43;;;;;;;22.05;7.45;;;;;;;;;;8462648;28;20050;-88
2022/09/11 22:24:46;;;;;;;20.58;6.95;;;;;;;;;;8469070;28;20070;-87
2022/09/11 22:28:49;;;;;;;24.20;7.68;;;;;;;;;;8469407;28;20429;-82
2022/09/11 22:32:53;;;;;;;19.50;7.28;;;;;;;;;;8469304;28;20471;-81
2022/09/11 22:36:56;;;;;;;19.92;6.95;;;;;;;;;;8468864;28;20051;-82
2022/09/11 22:40:58;;;;;;;21.20;7.78;;;;;;;;;;8468550;28;20048;-81
2022/09/11 22:45:01;;;;;;;20.60;7.72;;;;;;;;;;8468368;28;20050;-82
2022/09/11 22:49:05;;;;;;;27.23;8.60;;;;;;;;;;8468260;28;20085;-81
2022/09/11 22:53:07;;;;;;;21.13;7.93;;;;;;;;;;8468161;28;20059;-84
2022/09/11 22:57:10;;;;;;;23.70;8.23;;;;;;;;;;8467948;28;20044;-81
2022/09/11 23:01:17;;;;;;;22.40;7.93;;;;;;;;;;8467750;28;20063;-86
2022/09/11 23:09:41;;;;;;;26.90;9.18;;;;;;;;;;8467751;28;20372;-87
2022/09/11 23:13:46;;;;;;;26.30;8.07;;;;;;;;;;8467602;28;20055;-81
2022/09/11 23:17:49;;;;;;;21.27;7.22;;;;;;;;;;8467429;28;20051;-86
2022/09/11 23:21:52;;;;;;;23.98;7.75;;;;;;;;;;8467271;28;20050;-87
2022/09/11 23:25:55;;;;;;;23.70;8.25;;;;;;;;;;8467203;28;20081;-87
2022/09/11 23:29:58;;;;;;;30.02;7.55;;;;;;;;;;8466974;28;20060;-80
2022/09/11 23:34:03;;;;;;;25.13;9.15;;;;;;;;;;8466487;28;20523;-82
2022/09/11 23:38:07;;;;;;;22.42;8.38;;;;;;;;;;8466822;28;20048;-84
2022/09/11 23:42:09;;;;;;;24.88;8.65;;;;;;;;;;8466602;28;20048;-81
2022/09/11 23:46:12;;;;;;;25.05;8.82;;;;;;;;;;8466545;28;20066;-81
2022/09/11 23:50:15;;;;;;;27.50;9.57;;;;;;;;;;8466751;28;20039;-81
2022/09/11 23:54:19;;;;;;;21.10;8.68;;;;;;;;;;8466682;28;20448;-85
2022/09/11 23:58:22;;;;;;;26.08;7.80;;;;;;;;;;8466408;27;20044;-81
